sensor_id;sensor_type;location;lat;lon;timestamp;temperature;humidity
13572;DHT22;6857;53.484;10.216;2022-11-06T00:00:22;8.40;99.90
13572;DHT22;6857;53.484;10.216;2022-11-06T00:02:48;8.40;99.90
13572;DHT22;6857;53.484;10.216;2022-11-06T00:05:14;8.30;99.90
13572;DHT22;6857;53.484;10.216;2022-11-06T00:07:58;8.40;99.90
13572;DHT22;6857;53.484;10.216;2022-11-06T00:10:23;8.40;99.90
13572;DHT22;6857;53.484;10.216;2022-11-06T00:12:49;8.30;99.90
13572;DHT22;6857;53.484;10.216;2022-11-06T00:15:15;8.40;99.90
13572;DHT22;6857;53.484;10.216;2022-11-06T00:17:40;8.40;99.90
13572;DHT22;6857;53.484;10.216;2022-11-06T00:20:06;8.30;99.90
13572;DHT22;6857;53.484;10.216;2022-11-06T00:24:59;8.30;99.90
13572;DHT22;6857;53.484;10.216;2022-11-06T00:27:25;8.40;99.90
13572;DHT22;6857;53.484;10.216;2022-11-06T00:29:50;8.20;99.90
13572;DHT22;6857;53.484;10.216;2022-11-06T00:32:16;8.20;99.90
13572;DHT22;6857;53.484;10.216;2022-11-06T00:34:41;8.30;99.90
13572;DHT22;6857;53.484;10.216;2022-11-06T00:37:07;8.30;99.90
13572;DHT22;6857;53.484;10.216;2022-11-06T00:39:32;8.40;99.90
13572;DHT22;6857;53.484;10.216;2022-11-06T00:41:58;8.30;99.90
13572;DHT22;6857;53.484;10.216;2022-11-06T00:44:23;8.40;99.90
13572;DHT22;6857;53.484;10.216;2022-11-06T00:46:49;8.40;99.90
13572;DHT22;6857;53.484;10.216;2022-11-06T00:49:14;8.40;99.90
13572;DHT22;6857;53.484;10.216;2022-11-06T00:51:40;8.50;99.90
13572;DHT22;6857;53.484;10.216;2022-11-06T00:54:09;8.50;99.90
13572;DHT22;6857;53.484;10.216;2022-11-06T00:56:35;8.50;99.90
13572;DHT22;6857;53.484;10.216;2022-11-06T00:59:04;8.50;99.90
13572;DHT22;6857;53.484;10.216;2022-11-06T01:01:32;8.60;99.90
13572;DHT22;6857;53.484;10.216;2022-11-06T01:04:03;8.60;99.90
13572;DHT22;6857;53.484;10.216;2022-11-06T01:06:32;8.60;99.90
13572;DHT22;6857;53.484;10.216;2022-11-06T01:08:58;8.60;99.90
13572;DHT22;6857;53.484;10.216;2022-11-06T01:11:28;8.60;99.90
13572;DHT22;6857;53.484;10.216;2022-11-06T01:13:55;8.50;99.90
13572;DHT22;6857;53.484;10.216;2022-11-06T01:16:22;8.50;99.90
13572;DHT22;6857;53.484;10.216;2022-11-06T01:18:49;8.50;99.90
13572;DHT22;6857;53.484;10.216;2022-11-06T01:21:17;8.50;99.90
13572;DHT22;6857;53.484;10.216;2022-11-06T01:23:44;8.50;99.90
13572;DHT22;6857;53.484;10.216;2022-11-06T01:26:10;8.50;99.90
13572;DHT22;6857;53.484;10.216;2022-11-06T01:28:37;8.50;99.90
13572;DHT22;6857;53.484;10.216;2022-11-06T01:31:04;8.50;99.90
13572;DHT22;6857;53.484;10.216;2022-11-06T01:33:30;8.50;99.90
13572;DHT22;6857;53.484;10.216;2022-11-06T01:35:56;8.50;99.90
13572;DHT22;6857;53.484;10.216;2022-11-06T01:38:21;8.50;99.90
13572;DHT22;6857;53.484;10.216;2022-11-06T01:40:47;8.50;99.90
13572;DHT22;6857;53.484;10.216;2022-11-06T01:46:07;8.50;99.90
13572;DHT22;6857;53.484;10.216;2022-11-06T01:48:32;8.60;99.90
13572;DHT22;6857;53.484;10.216;2022-11-06T01:50:58;8.50;99.90
13572;DHT22;6857;53.484;10.216;2022-11-06T01:53:24;8.50;99.90
13572;DHT22;6857;53.484;10.216;2022-11-06T01:55:53;8.50;99.90
13572;DHT22;6857;53.484;10.216;2022-11-06T01:58:21;8.60;99.90
13572;DHT22;6857;53.484;10.216;2022-11-06T02:00:49;8.50;99.90
13572;DHT22;6857;53.484;10.216;2022-11-06T02:03:15;8.50;99.90
13572;DHT22;6857;53.484;10.216;2022-11-06T02:05:41;8.60;99.90
13572;DHT22;6857;53.484;10.216;2022-11-06T02:08:10;8.60;99.90
13572;DHT22;6857;53.484;10.216;2022-11-06T02:10:37;8.60;99.90
13572;DHT22;6857;53.484;10.216;2022-11-06T02:16:08;8.70;99.90
13572;DHT22;6857;53.484;10.216;2022-11-06T02:27:19;8.80;99.90
13572;DHT22;6857;53.484;10.216;2022-11-06T02:30:05;8.90;99.90
13572;DHT22;6857;53.484;10.216;2022-11-06T02:37:46;8.90;99.90
13572;DHT22;6857;53.484;10.216;2022-11-06T02:40:14;8.80;99.90
13572;DHT22;6857;53.484;10.216;2022-11-06T02:42:43;8.90;99.90
13572;DHT22;6857;53.484;10.216;2022-11-06T02:45:11;8.90;99.90
13572;DHT22;6857;53.484;10.216;2022-11-06T02:47:39;8.90;99.90
13572;DHT22;6857;53.484;10.216;2022-11-06T02:50:21;8.90;99.90
13572;DHT22;6857;53.484;10.216;2022-11-06T02:52:57;9.00;99.90
13572;DHT22;6857;53.484;10.216;2022-11-06T02:55:42;9.00;99.90
13572;DHT22;6857;53.484;10.216;2022-11-06T02:58:29;9.00;99.90
13572;DHT22;6857;53.484;10.216;2022-11-06T03:01:03;9.20;99.90
13572;DHT22;6857;53.484;10.216;2022-11-06T03:03:35;9.00;99.90
13572;DHT22;6857;53.484;10.216;2022-11-06T03:06:16;8.90;99.90
13572;DHT22;6857;53.484;10.216;2022-11-06T03:08:56;9.00;99.90
13572;DHT22;6857;53.484;10.216;2022-11-06T03:11:31;8.90;99.90
13572;DHT22;6857;53.484;10.216;2022-11-06T03:14:14;9.00;99.90
13572;DHT22;6857;53.484;10.216;2022-11-06T03:16:56;8.90;99.90
13572;DHT22;6857;53.484;10.216;2022-11-06T03:19:48;8.90;99.90
13572;DHT22;6857;53.484;10.216;2022-11-06T03:22:21;9.00;99.90
13572;DHT22;6857;53.484;10.216;2022-11-06T03:25:08;9.00;99.90
13572;DHT22;6857;53.484;10.216;2022-11-06T03:28:06;9.00;99.90
13572;DHT22;6857;53.484;10.216;2022-11-06T03:30:37;9.00;99.90
13572;DHT22;6857;53.484;10.216;2022-11-06T03:33:13;9.00;99.90
13572;DHT22;6857;53.484;10.216;2022-11-06T03:36:04;8.90;99.90
13572;DHT22;6857;53.484;10.216;2022-11-06T03:38:42;8.80;99.90
13572;DHT22;6857;53.484;10.216;2022-11-06T03:41:15;8.80;99.90
13572;DHT22;6857;53.484;10.216;2022-11-06T03:43:44;8.70;99.90
13572;DHT22;6857;53.484;10.216;2022-11-06T03:46:16;8.70;99.90
13572;DHT22;6857;53.484;10.216;2022-11-06T03:48:48;8.70;99.90
13572;DHT22;6857;53.484;10.216;2022-11-06T03:51:16;8.70;99.90
13572;DHT22;6857;53.484;10.216;2022-11-06T03:53:52;8.70;99.90
13572;DHT22;6857;53.484;10.216;2022-11-06T03:56:28;8.80;99.90
13572;DHT22;6857;53.484;10.216;2022-11-06T03:58:57;8.80;99.90
13572;DHT22;6857;53.484;10.216;2022-11-06T04:01:33;8.90;99.90
13572;DHT22;6857;53.484;10.216;2022-11-06T04:04:22;8.90;99.90
13572;DHT22;6857;53.484;10.216;2022-11-06T04:06:54;8.90;99.90
13572;DHT22;6857;53.484;10.216;2022-11-06T04:09:23;8.90;99.90
13572;DHT22;6857;53.484;10.216;2022-11-06T04:12:12;8.90;99.90
13572;DHT22;6857;53.484;10.216;2022-11-06T04:14:58;9.00;99.90
13572;DHT22;6857;53.484;10.216;2022-11-06T04:17:27;8.90;99.90
13572;DHT22;6857;53.484;10.216;2022-11-06T04:20:04;8.90;99.90
13572;DHT22;6857;53.484;10.216;2022-11-06T04:29:07;8.90;99.90
13572;DHT22;6857;53.484;10.216;2022-11-06T04:34:05;8.90;99.90
13572;DHT22;6857;53.484;10.216;2022-11-06T04:36:58;8.90;99.90
13572;DHT22;6857;53.484;10.216;2022-11-06T04:39:27;8.80;99.90
13572;DHT22;6857;53.484;10.216;2022-11-06T04:42:08;8.70;99.90
13572;DHT22;6857;53.484;10.216;2022-11-06T04:44:42;8.70;99.90
13572;DHT22;6857;53.484;10.216;2022-11-06T04:47:13;8.70;99.90
13572;DHT22;6857;53.484;10.216;2022-11-06T04:49:41;8.60;99.90
13572;DHT22;6857;53.484;10.216;2022-11-06T04:52:14;8.60;99.90
13572;DHT22;6857;53.484;10.216;2022-11-06T04:54:41;8.50;99.90
13572;DHT22;6857;53.484;10.216;2022-11-06T04:57:09;8.40;99.90
13572;DHT22;6857;53.484;10.216;2022-11-06T04:59:35;8.50;99.90
13572;DHT22;6857;53.484;10.216;2022-11-06T05:02:02;8.50;99.90
13572;DHT22;6857;53.484;10.216;2022-11-06T05:04:29;8.50;99.90
13572;DHT22;6857;53.484;10.216;2022-11-06T05:06:55;8.50;99.90
13572;DHT22;6857;53.484;10.216;2022-11-06T05:09:20;8.30;99.90
13572;DHT22;6857;53.484;10.216;2022-11-06T05:11:46;8.50;99.90
13572;DHT22;6857;53.484;10.216;2022-11-06T05:14:11;8.60;99.90
13572;DHT22;6857;53.484;10.216;2022-11-06T05:16:37;8.70;99.90
13572;DHT22;6857;53.484;10.216;2022-11-06T05:19:03;8.70;99.90
13572;DHT22;6857;53.484;10.216;2022-11-06T05:21:28;8.70;99.90
13572;DHT22;6857;53.484;10.216;2022-11-06T05:24:12;8.60;99.90
13572;DHT22;6857;53.484;10.216;2022-11-06T05:26:38;8.70;99.90
13572;DHT22;6857;53.484;10.216;2022-11-06T05:29:03;8.70;99.90
13572;DHT22;6857;53.484;10.216;2022-11-06T05:31:29;8.60;99.90
13572;DHT22;6857;53.484;10.216;2022-11-06T05:33:55;8.70;99.90
13572;DHT22;6857;53.484;10.216;2022-11-06T05:36:20;8.70;99.90
13572;DHT22;6857;53.484;10.216;2022-11-06T05:38:46;8.80;99.90
13572;DHT22;6857;53.484;10.216;2022-11-06T05:41:11;8.70;99.90
13572;DHT22;6857;53.484;10.216;2022-11-06T05:43:37;8.80;99.90
13572;DHT22;6857;53.484;10.216;2022-11-06T05:46:02;8.80;99.90
13572;DHT22;6857;53.484;10.216;2022-11-06T05:48:28;8.80;99.90
13572;DHT22;6857;53.484;10.216;2022-11-06T05:51:01;8.80;99.90
13572;DHT22;6857;53.484;10.216;2022-11-06T05:53:29;8.90;99.90
13572;DHT22;6857;53.484;10.216;2022-11-06T05:55:55;8.90;99.90
13572;DHT22;6857;53.484;10.216;2022-11-06T05:58:20;8.90;99.90
13572;DHT22;6857;53.484;10.216;2022-11-06T06:00:46;8.90;99.90
13572;DHT22;6857;53.484;10.216;2022-11-06T06:03:11;8.90;99.90
13572;DHT22;6857;53.484;10.216;2022-11-06T06:05:37;9.00;99.90
13572;DHT22;6857;53.484;10.216;2022-11-06T06:08:03;8.70;99.90
13572;DHT22;6857;53.484;10.216;2022-11-06T06:10:29;8.90;99.90
13572;DHT22;6857;53.484;10.216;2022-11-06T06:12:55;9.00;99.90
13572;DHT22;6857;53.484;10.216;2022-11-06T06:15:20;9.00;99.90
13572;DHT22;6857;53.484;10.216;2022-11-06T06:17:46;9.00;99.90
13572;DHT22;6857;53.484;10.216;2022-11-06T06:20:11;9.10;99.90
13572;DHT22;6857;53.484;10.216;2022-11-06T06:22:37;9.20;99.90
13572;DHT22;6857;53.484;10.216;2022-11-06T06:25:03;9.20;99.90
13572;DHT22;6857;53.484;10.216;2022-11-06T06:27:28;9.20;99.90
13572;DHT22;6857;53.484;10.216;2022-11-06T06:29:55;9.20;99.90
13572;DHT22;6857;53.484;10.216;2022-11-06T06:32:21;9.20;99.90
13572;DHT22;6857;53.484;10.216;2022-11-06T06:34:47;9.30;99.90
13572;DHT22;6857;53.484;10.216;2022-11-06T06:37:12;9.30;99.90
13572;DHT22;6857;53.484;10.216;2022-11-06T06:39:38;9.30;99.90
13572;DHT22;6857;53.484;10.216;2022-11-06T06:42:03;9.30;99.90
13572;DHT22;6857;53.484;10.216;2022-11-06T06:44:29;9.40;99.90
13572;DHT22;6857;53.484;10.216;2022-11-06T06:46:55;9.40;99.90
13572;DHT22;6857;53.484;10.216;2022-11-06T06:49:20;9.40;99.90
13572;DHT22;6857;53.484;10.216;2022-11-06T06:51:49;9.40;99.90
13572;DHT22;6857;53.484;10.216;2022-11-06T06:54:15;9.60;99.90
13572;DHT22;6857;53.484;10.216;2022-11-06T06:56:41;9.80;99.90
13572;DHT22;6857;53.484;10.216;2022-11-06T06:59:06;10.10;99.90
13572;DHT22;6857;53.484;10.216;2022-11-06T07:01:32;10.00;99.90
13572;DHT22;6857;53.484;10.216;2022-11-06T07:03:58;9.80;99.90
13572;DHT22;6857;53.484;10.216;2022-11-06T07:06:24;9.50;99.90
13572;DHT22;6857;53.484;10.216;2022-11-06T07:08:53;9.70;99.90
13572;DHT22;6857;53.484;10.216;2022-11-06T07:11:20;9.70;99.90
13572;DHT22;6857;53.484;10.216;2022-11-06T07:13:45;9.60;99.90
13572;DHT22;6857;53.484;10.216;2022-11-06T07:16:14;9.60;99.90
13572;DHT22;6857;53.484;10.216;2022-11-06T07:18:40;9.60;99.90
13572;DHT22;6857;53.484;10.216;2022-11-06T07:21:10;9.50;99.90
13572;DHT22;6857;53.484;10.216;2022-11-06T07:23:36;9.60;99.90
13572;DHT22;6857;53.484;10.216;2022-11-06T07:26:03;9.60;99.90
13572;DHT22;6857;53.484;10.216;2022-11-06T07:28:29;9.60;99.90
13572;DHT22;6857;53.484;10.216;2022-11-06T07:30:59;9.60;99.90
13572;DHT22;6857;53.484;10.216;2022-11-06T07:33:31;9.60;99.90
13572;DHT22;6857;53.484;10.216;2022-11-06T07:36:02;9.80;99.90
13572;DHT22;6857;53.484;10.216;2022-11-06T07:38:28;9.80;99.90
13572;DHT22;6857;53.484;10.216;2022-11-06T07:40:53;9.60;99.90
13572;DHT22;6857;53.484;10.216;2022-11-06T07:43:19;9.70;99.90
13572;DHT22;6857;53.484;10.216;2022-11-06T07:45:45;9.70;99.90
13572;DHT22;6857;53.484;10.216;2022-11-06T07:48:10;9.70;99.90
13572;DHT22;6857;53.484;10.216;2022-11-06T07:50:36;9.70;99.90
13572;DHT22;6857;53.484;10.216;2022-11-06T07:53:02;9.70;99.90
13572;DHT22;6857;53.484;10.216;2022-11-06T07:55:28;8.30;99.90
13572;DHT22;6857;53.484;10.216;2022-11-06T07:57:53;9.70;99.90
13572;DHT22;6857;53.484;10.216;2022-11-06T08:00:19;9.60;99.90
13572;DHT22;6857;53.484;10.216;2022-11-06T08:02:50;9.80;99.90
13572;DHT22;6857;53.484;10.216;2022-11-06T08:05:16;9.90;99.90
13572;DHT22;6857;53.484;10.216;2022-11-06T08:07:41;9.90;99.90
13572;DHT22;6857;53.484;10.216;2022-11-06T08:10:07;9.90;99.90
13572;DHT22;6857;53.484;10.216;2022-11-06T08:12:33;9.90;99.90
13572;DHT22;6857;53.484;10.216;2022-11-06T08:14:58;9.90;99.90
13572;DHT22;6857;53.484;10.216;2022-11-06T08:17:24;9.90;99.90
13572;DHT22;6857;53.484;10.216;2022-11-06T08:19:49;9.90;99.90
13572;DHT22;6857;53.484;10.216;2022-11-06T08:22:15;10.00;99.90
13572;DHT22;6857;53.484;10.216;2022-11-06T08:24:40;10.00;99.90
13572;DHT22;6857;53.484;10.216;2022-11-06T08:27:06;10.00;99.90
13572;DHT22;6857;53.484;10.216;2022-11-06T08:29:32;10.50;99.90
13572;DHT22;6857;53.484;10.216;2022-11-06T08:31:57;10.00;99.90
13572;DHT22;6857;53.484;10.216;2022-11-06T08:34:23;10.00;99.90
13572;DHT22;6857;53.484;10.216;2022-11-06T08:36:48;10.10;99.90
13572;DHT22;6857;53.484;10.216;2022-11-06T08:39:17;10.00;99.90
13572;DHT22;6857;53.484;10.216;2022-11-06T08:41:43;10.10;99.90
13572;DHT22;6857;53.484;10.216;2022-11-06T08:44:09;10.10;99.90
13572;DHT22;6857;53.484;10.216;2022-11-06T08:46:35;10.20;99.90
13572;DHT22;6857;53.484;10.216;2022-11-06T08:49:01;10.20;99.90
13572;DHT22;6857;53.484;10.216;2022-11-06T08:51:26;10.20;99.90
13572;DHT22;6857;53.484;10.216;2022-11-06T08:53:52;10.20;99.90
13572;DHT22;6857;53.484;10.216;2022-11-06T08:56:17;10.20;99.90
13572;DHT22;6857;53.484;10.216;2022-11-06T08:58:43;10.40;99.90
13572;DHT22;6857;53.484;10.216;2022-11-06T09:01:09;10.30;99.90
13572;DHT22;6857;53.484;10.216;2022-11-06T09:03:34;10.50;99.90
13572;DHT22;6857;53.484;10.216;2022-11-06T09:06:00;10.50;99.90
13572;DHT22;6857;53.484;10.216;2022-11-06T09:08:25;10.60;99.90
13572;DHT22;6857;53.484;10.216;2022-11-06T09:10:51;10.50;99.90
13572;DHT22;6857;53.484;10.216;2022-11-06T09:13:17;10.50;99.90
13572;DHT22;6857;53.484;10.216;2022-11-06T09:15:43;10.50;99.90
13572;DHT22;6857;53.484;10.216;2022-11-06T09:18:10;10.50;99.90
13572;DHT22;6857;53.484;10.216;2022-11-06T09:20:35;10.60;99.90
13572;DHT22;6857;53.484;10.216;2022-11-06T09:23:03;10.60;99.90
13572;DHT22;6857;53.484;10.216;2022-11-06T09:25:29;10.40;99.90
13572;DHT22;6857;53.484;10.216;2022-11-06T09:27:55;10.50;99.90
13572;DHT22;6857;53.484;10.216;2022-11-06T09:30:22;10.50;99.90
13572;DHT22;6857;53.484;10.216;2022-11-06T09:32:56;10.60;99.90
13572;DHT22;6857;53.484;10.216;2022-11-06T09:35:23;10.50;99.90
13572;DHT22;6857;53.484;10.216;2022-11-06T09:37:49;10.60;99.90
13572;DHT22;6857;53.484;10.216;2022-11-06T09:40:37;10.70;99.90
13572;DHT22;6857;53.484;10.216;2022-11-06T09:46:26;10.80;99.90
13572;DHT22;6857;53.484;10.216;2022-11-06T09:49:18;10.90;99.90
13572;DHT22;6857;53.484;10.216;2022-11-06T09:52:02;11.00;99.90
13572;DHT22;6857;53.484;10.216;2022-11-06T09:54:39;11.00;99.90
13572;DHT22;6857;53.484;10.216;2022-11-06T10:00:03;11.30;99.90
13572;DHT22;6857;53.484;10.216;2022-11-06T10:09:54;11.50;99.90
13572;DHT22;6857;53.484;10.216;2022-11-06T10:12:33;11.30;99.90
13572;DHT22;6857;53.484;10.216;2022-11-06T10:15:06;11.50;99.90
13572;DHT22;6857;53.484;10.216;2022-11-06T10:17:42;11.30;99.90
13572;DHT22;6857;53.484;10.216;2022-11-06T10:20:20;11.30;99.90
13572;DHT22;6857;53.484;10.216;2022-11-06T10:23:00;11.40;99.90
13572;DHT22;6857;53.484;10.216;2022-11-06T10:30:56;11.60;99.90
13572;DHT22;6857;53.484;10.216;2022-11-06T10:33:31;11.60;99.90
13572;DHT22;6857;53.484;10.216;2022-11-06T10:36:20;11.60;99.90
13572;DHT22;6857;53.484;10.216;2022-11-06T10:38:48;12.30;99.90
13572;DHT22;6857;53.484;10.216;2022-11-06T10:41:22;11.80;99.90
13572;DHT22;6857;53.484;10.216;2022-11-06T10:43:56;11.80;99.90
13572;DHT22;6857;53.484;10.216;2022-11-06T10:46:39;11.80;99.90
13572;DHT22;6857;53.484;10.216;2022-11-06T10:49:28;12.00;99.90
13572;DHT22;6857;53.484;10.216;2022-11-06T10:52:22;12.10;99.90
13572;DHT22;6857;53.484;10.216;2022-11-06T10:58:02;12.20;99.90
13572;DHT22;6857;53.484;10.216;2022-11-06T11:00:30;12.40;99.90
13572;DHT22;6857;53.484;10.216;2022-11-06T11:02:59;12.30;99.90
13572;DHT22;6857;53.484;10.216;2022-11-06T11:05:30;12.50;99.90
13572;DHT22;6857;53.484;10.216;2022-11-06T11:07:56;12.60;99.90
13572;DHT22;6857;53.484;10.216;2022-11-06T11:12:48;13.10;99.90
13572;DHT22;6857;53.484;10.216;2022-11-06T11:15:17;13.30;99.90
13572;DHT22;6857;53.484;10.216;2022-11-06T11:18:23;13.70;99.90
13572;DHT22;6857;53.484;10.216;2022-11-06T11:21:06;13.70;99.90
13572;DHT22;6857;53.484;10.216;2022-11-06T11:23:32;13.80;99.90
13572;DHT22;6857;53.484;10.216;2022-11-06T11:26:18;13.80;99.90
13572;DHT22;6857;53.484;10.216;2022-11-06T11:28:54;13.70;99.90
13572;DHT22;6857;53.484;10.216;2022-11-06T11:31:30;13.70;99.90
13572;DHT22;6857;53.484;10.216;2022-11-06T11:33:59;13.60;99.90
13572;DHT22;6857;53.484;10.216;2022-11-06T11:36:25;13.70;99.90
13572;DHT22;6857;53.484;10.216;2022-11-06T11:38:51;13.70;99.90
13572;DHT22;6857;53.484;10.216;2022-11-06T11:44:06;13.40;99.90
13572;DHT22;6857;53.484;10.216;2022-11-06T11:46:48;13.60;99.90
13572;DHT22;6857;53.484;10.216;2022-11-06T11:51:52;13.30;99.90
13572;DHT22;6857;53.484;10.216;2022-11-06T11:54:23;13.30;99.90
13572;DHT22;6857;53.484;10.216;2022-11-06T11:57:04;13.40;99.90
13572;DHT22;6857;53.484;10.216;2022-11-06T11:59:50;13.40;99.90
13572;DHT22;6857;53.484;10.216;2022-11-06T12:05:41;13.50;99.90
13572;DHT22;6857;53.484;10.216;2022-11-06T12:07:54;13.70;99.90
13572;DHT22;6857;53.484;10.216;2022-11-06T12:10:42;13.80;99.90
13572;DHT22;6857;53.484;10.216;2022-11-06T12:13:19;13.70;99.90
13572;DHT22;6857;53.484;10.216;2022-11-06T12:18:32;13.50;99.90
13572;DHT22;6857;53.484;10.216;2022-11-06T12:21:06;13.60;99.90
13572;DHT22;6857;53.484;10.216;2022-11-06T12:23:52;13.60;99.90
13572;DHT22;6857;53.484;10.216;2022-11-06T12:29:22;13.70;99.90
13572;DHT22;6857;53.484;10.216;2022-11-06T12:32:11;14.00;99.90
13572;DHT22;6857;53.484;10.216;2022-11-06T12:48:46;13.30;99.90
13572;DHT22;6857;53.484;10.216;2022-11-06T12:51:35;13.20;99.90
13572;DHT22;6857;53.484;10.216;2022-11-06T13:02:32;13.20;99.90
13572;DHT22;6857;53.484;10.216;2022-11-06T13:07:39;13.10;99.90
13572;DHT22;6857;53.484;10.216;2022-11-06T13:12:47;13.20;99.90
13572;DHT22;6857;53.484;10.216;2022-11-06T13:15:37;13.50;99.90
13572;DHT22;6857;53.484;10.216;2022-11-06T13:20:55;14.00;99.90
13572;DHT22;6857;53.484;10.216;2022-11-06T13:23:28;13.90;99.90
13572;DHT22;6857;53.484;10.216;2022-11-06T13:29:00;14.10;99.90
13572;DHT22;6857;53.484;10.216;2022-11-06T13:31:50;14.00;99.90
13572;DHT22;6857;53.484;10.216;2022-11-06T13:34:21;14.20;99.90
13572;DHT22;6857;53.484;10.216;2022-11-06T13:36:48;14.40;99.90
13572;DHT22;6857;53.484;10.216;2022-11-06T13:39:21;14.30;99.90
13572;DHT22;6857;53.484;10.216;2022-11-06T13:41:49;14.20;99.90
13572;DHT22;6857;53.484;10.216;2022-11-06T13:44:16;14.30;99.90
13572;DHT22;6857;53.484;10.216;2022-11-06T13:52:21;14.50;99.90
13572;DHT22;6857;53.484;10.216;2022-11-06T13:58:02;14.70;99.90
13572;DHT22;6857;53.484;10.216;2022-11-06T14:03:31;14.20;99.90
13572;DHT22;6857;53.484;10.216;2022-11-06T14:06:04;13.80;99.90
13572;DHT22;6857;53.484;10.216;2022-11-06T14:13:38;12.90;99.90
13572;DHT22;6857;53.484;10.216;2022-11-06T14:16:24;12.70;99.90
13572;DHT22;6857;53.484;10.216;2022-11-06T14:19:06;12.60;99.90
13572;DHT22;6857;53.484;10.216;2022-11-06T14:26:41;12.50;99.90
13572;DHT22;6857;53.484;10.216;2022-11-06T14:34:45;12.40;99.90
13572;DHT22;6857;53.484;10.216;2022-11-06T14:42:33;12.40;99.90
13572;DHT22;6857;53.484;10.216;2022-11-06T14:45:19;12.30;99.90
13572;DHT22;6857;53.484;10.216;2022-11-06T14:52:48;11.90;99.90
13572;DHT22;6857;53.484;10.216;2022-11-06T14:55:38;12.20;99.90
13572;DHT22;6857;53.484;10.216;2022-11-06T14:58:23;12.10;99.90
13572;DHT22;6857;53.484;10.216;2022-11-06T15:00:52;12.10;99.90
13572;DHT22;6857;53.484;10.216;2022-11-06T15:03:23;12.00;99.90
13572;DHT22;6857;53.484;10.216;2022-11-06T15:05:49;12.00;99.90
13572;DHT22;6857;53.484;10.216;2022-11-06T15:11:28;11.90;99.90
13572;DHT22;6857;53.484;10.216;2022-11-06T15:16:31;11.80;99.90
13572;DHT22;6857;53.484;10.216;2022-11-06T15:19:03;11.70;99.90
13572;DHT22;6857;53.484;10.216;2022-11-06T15:21:34;11.60;99.90
13572;DHT22;6857;53.484;10.216;2022-11-06T15:24:07;11.60;99.90
13572;DHT22;6857;53.484;10.216;2022-11-06T15:26:46;11.50;99.90
13572;DHT22;6857;53.484;10.216;2022-11-06T15:29:17;11.50;99.90
13572;DHT22;6857;53.484;10.216;2022-11-06T15:31:47;11.40;99.90
13572;DHT22;6857;53.484;10.216;2022-11-06T15:34:26;11.40;99.90
13572;DHT22;6857;53.484;10.216;2022-11-06T15:37:00;11.40;99.90
13572;DHT22;6857;53.484;10.216;2022-11-06T15:41:54;11.40;99.90
13572;DHT22;6857;53.484;10.216;2022-11-06T15:44:22;11.30;99.90
13572;DHT22;6857;53.484;10.216;2022-11-06T15:47:25;11.30;99.90
13572;DHT22;6857;53.484;10.216;2022-11-06T15:52:42;11.30;99.90
13572;DHT22;6857;53.484;10.216;2022-11-06T15:55:27;11.30;99.90
13572;DHT22;6857;53.484;10.216;2022-11-06T15:57:53;11.20;99.90
13572;DHT22;6857;53.484;10.216;2022-11-06T16:00:28;11.20;99.90
13572;DHT22;6857;53.484;10.216;2022-11-06T16:02:59;11.20;99.90
13572;DHT22;6857;53.484;10.216;2022-11-06T16:05:30;11.10;99.90
13572;DHT22;6857;53.484;10.216;2022-11-06T16:07:58;11.00;99.90
13572;DHT22;6857;53.484;10.216;2022-11-06T16:10:25;11.00;99.90
13572;DHT22;6857;53.484;10.216;2022-11-06T16:12:52;11.00;99.90
13572;DHT22;6857;53.484;10.216;2022-11-06T16:20:42;10.90;99.90
13572;DHT22;6857;53.484;10.216;2022-11-06T16:23:11;10.80;99.90
13572;DHT22;6857;53.484;10.216;2022-11-06T16:25:38;10.80;99.90
13572;DHT22;6857;53.484;10.216;2022-11-06T16:28:04;10.80;99.90
13572;DHT22;6857;53.484;10.216;2022-11-06T16:30:37;10.90;99.90
13572;DHT22;6857;53.484;10.216;2022-11-06T16:33:20;10.80;99.90
13572;DHT22;6857;53.484;10.216;2022-11-06T16:35:48;10.80;99.90
13572;DHT22;6857;53.484;10.216;2022-11-06T16:40:55;10.80;99.90
13572;DHT22;6857;53.484;10.216;2022-11-06T16:43:21;10.70;99.90
13572;DHT22;6857;53.484;10.216;2022-11-06T16:48:42;10.70;99.90
13572;DHT22;6857;53.484;10.216;2022-11-06T16:51:10;10.60;99.90
13572;DHT22;6857;53.484;10.216;2022-11-06T16:53:55;10.60;99.90
13572;DHT22;6857;53.484;10.216;2022-11-06T16:56:23;10.50;99.90
13572;DHT22;6857;53.484;10.216;2022-11-06T16:58:53;10.50;99.90
13572;DHT22;6857;53.484;10.216;2022-11-06T17:01:20;10.60;99.90
13572;DHT22;6857;53.484;10.216;2022-11-06T17:06:25;10.50;99.90
13572;DHT22;6857;53.484;10.216;2022-11-06T17:09:27;10.50;99.90
13572;DHT22;6857;53.484;10.216;2022-11-06T17:11:57;10.50;99.90
13572;DHT22;6857;53.484;10.216;2022-11-06T17:14:24;10.50;99.90
13572;DHT22;6857;53.484;10.216;2022-11-06T17:16:52;10.40;99.90
13572;DHT22;6857;53.484;10.216;2022-11-06T17:19:20;10.50;99.90
13572;DHT22;6857;53.484;10.216;2022-11-06T17:21:46;10.40;99.90
13572;DHT22;6857;53.484;10.216;2022-11-06T17:24:12;10.40;99.90
13572;DHT22;6857;53.484;10.216;2022-11-06T17:26:43;10.40;99.90
13572;DHT22;6857;53.484;10.216;2022-11-06T17:29:10;10.40;99.90
13572;DHT22;6857;53.484;10.216;2022-11-06T17:31:36;10.30;99.90
13572;DHT22;6857;53.484;10.216;2022-11-06T17:34:01;10.30;99.90
13572;DHT22;6857;53.484;10.216;2022-11-06T17:36:28;10.40;99.90
13572;DHT22;6857;53.484;10.216;2022-11-06T17:38:55;10.30;99.90
13572;DHT22;6857;53.484;10.216;2022-11-06T17:41:23;10.30;99.90
13572;DHT22;6857;53.484;10.216;2022-11-06T17:44:00;10.30;99.90
13572;DHT22;6857;53.484;10.216;2022-11-06T17:46:31;10.20;99.90
13572;DHT22;6857;53.484;10.216;2022-11-06T17:48:58;10.30;99.90
13572;DHT22;6857;53.484;10.216;2022-11-06T17:51:23;10.30;99.90
13572;DHT22;6857;53.484;10.216;2022-11-06T17:54:09;10.30;99.90
13572;DHT22;6857;53.484;10.216;2022-11-06T17:56:34;10.30;99.90
13572;DHT22;6857;53.484;10.216;2022-11-06T17:59:00;10.30;99.90
13572;DHT22;6857;53.484;10.216;2022-11-06T18:01:26;10.20;99.90
13572;DHT22;6857;53.484;10.216;2022-11-06T18:03:51;10.20;99.90
13572;DHT22;6857;53.484;10.216;2022-11-06T18:06:17;10.20;99.90
13572;DHT22;6857;53.484;10.216;2022-11-06T18:08:43;10.10;99.90
13572;DHT22;6857;53.484;10.216;2022-11-06T18:11:09;10.10;99.90
13572;DHT22;6857;53.484;10.216;2022-11-06T18:13:36;10.20;99.90
13572;DHT22;6857;53.484;10.216;2022-11-06T18:16:03;10.10;99.90
13572;DHT22;6857;53.484;10.216;2022-11-06T18:18:29;10.20;99.90
13572;DHT22;6857;53.484;10.216;2022-11-06T18:20:55;10.10;99.90
13572;DHT22;6857;53.484;10.216;2022-11-06T18:23:20;10.10;99.90
13572;DHT22;6857;53.484;10.216;2022-11-06T18:25:54;10.10;99.90
13572;DHT22;6857;53.484;10.216;2022-11-06T18:28:20;9.90;99.90
13572;DHT22;6857;53.484;10.216;2022-11-06T18:33:15;10.00;99.90
13572;DHT22;6857;53.484;10.216;2022-11-06T18:35:41;9.90;99.90
13572;DHT22;6857;53.484;10.216;2022-11-06T18:38:07;10.00;99.90
13572;DHT22;6857;53.484;10.216;2022-11-06T18:40:32;9.90;99.90
13572;DHT22;6857;53.484;10.216;2022-11-06T18:42:58;9.70;99.90
13572;DHT22;6857;53.484;10.216;2022-11-06T18:45:24;9.90;99.90